sensor_id;sensor_type;location;lat;lon;timestamp;P1;durP1;ratioP1;P2;durP2;ratioP2
2712;SDS011;1366;47.988;7.856;2023-09-30T00:01:44;6.43;;;5.33;;
2712;SDS011;1366;47.988;7.856;2023-09-30T00:04:10;8.43;;;5.60;;
2712;SDS011;1366;47.988;7.856;2023-09-30T00:06:36;8.40;;;5.03;;
2712;SDS011;1366;47.988;7.856;2023-09-30T00:09:03;7.20;;;4.43;;
2712;SDS011;1366;47.988;7.856;2023-09-30T00:11:30;6.03;;;4.93;;
2712;SDS011;1366;47.988;7.856;2023-09-30T00:13:56;5.97;;;4.23;;
2712;SDS011;1366;47.988;7.856;2023-09-30T00:16:23;5.60;;;4.10;;
2712;SDS011;1366;47.988;7.856;2023-09-30T00:18:49;6.50;;;4.50;;
2712;SDS011;1366;47.988;7.856;2023-09-30T00:21:15;6.60;;;5.33;;
2712;SDS011;1366;47.988;7.856;2023-09-30T00:23:42;5.13;;;3.80;;
2712;SDS011;1366;47.988;7.856;2023-09-30T00:26:08;6.23;;;3.70;;
2712;SDS011;1366;47.988;7.856;2023-09-30T00:28:34;6.60;;;4.53;;
2712;SDS011;1366;47.988;7.856;2023-09-30T00:31:00;8.83;;;6.43;;
2712;SDS011;1366;47.988;7.856;2023-09-30T00:33:26;7.37;;;5.33;;
2712;SDS011;1366;47.988;7.856;2023-09-30T00:35:52;5.50;;;3.83;;
2712;SDS011;1366;47.988;7.856;2023-09-30T00:38:18;6.37;;;4.50;;
2712;SDS011;1366;47.988;7.856;2023-09-30T00:40:48;6.40;;;4.93;;
2712;SDS011;1366;47.988;7.856;2023-09-30T00:43:18;6.10;;;4.70;;
2712;SDS011;1366;47.988;7.856;2023-09-30T00:45:44;6.60;;;4.80;;
2712;SDS011;1366;47.988;7.856;2023-09-30T00:48:10;5.67;;;4.50;;
2712;SDS011;1366;47.988;7.856;2023-09-30T00:50:36;8.13;;;5.13;;
2712;SDS011;1366;47.988;7.856;2023-09-30T00:53:03;6.37;;;4.53;;
2712;SDS011;1366;47.988;7.856;2023-09-30T00:55:29;7.03;;;4.97;;
2712;SDS011;1366;47.988;7.856;2023-09-30T00:57:55;7.43;;;4.70;;
2712;SDS011;1366;47.988;7.856;2023-09-30T01:00:22;6.83;;;4.20;;
2712;SDS011;1366;47.988;7.856;2023-09-30T01:02:50;7.60;;;4.83;;
2712;SDS011;1366;47.988;7.856;2023-09-30T01:05:18;7.03;;;4.97;;
2712;SDS011;1366;47.988;7.856;2023-09-30T01:07:44;8.00;;;5.03;;
2712;SDS011;1366;47.988;7.856;2023-09-30T01:10:10;7.53;;;4.53;;
2712;SDS011;1366;47.988;7.856;2023-09-30T01:12:36;7.13;;;4.90;;
2712;SDS011;1366;47.988;7.856;2023-09-30T01:15:02;6.20;;;3.80;;
2712;SDS011;1366;47.988;7.856;2023-09-30T01:17:31;7.10;;;5.17;;
2712;SDS011;1366;47.988;7.856;2023-09-30T01:19:57;7.97;;;5.47;;
2712;SDS011;1366;47.988;7.856;2023-09-30T01:22:30;6.90;;;4.43;;
2712;SDS011;1366;47.988;7.856;2023-09-30T01:24:56;6.00;;;4.70;;
2712;SDS011;1366;47.988;7.856;2023-09-30T01:27:22;5.13;;;4.20;;
2712;SDS011;1366;47.988;7.856;2023-09-30T01:29:48;7.03;;;4.70;;
2712;SDS011;1366;47.988;7.856;2023-09-30T01:32:15;10.70;;;5.37;;
2712;SDS011;1366;47.988;7.856;2023-09-30T01:34:41;7.80;;;5.73;;
2712;SDS011;1366;47.988;7.856;2023-09-30T01:37:07;7.67;;;4.17;;
2712;SDS011;1366;47.988;7.856;2023-09-30T01:39:33;6.30;;;4.13;;
2712;SDS011;1366;47.988;7.856;2023-09-30T01:41:59;7.40;;;4.40;;
2712;SDS011;1366;47.988;7.856;2023-09-30T01:44:25;9.10;;;5.93;;
2712;SDS011;1366;47.988;7.856;2023-09-30T01:46:52;5.77;;;3.93;;
2712;SDS011;1366;47.988;7.856;2023-09-30T01:49:18;7.40;;;4.60;;
2712;SDS011;1366;47.988;7.856;2023-09-30T01:51:44;6.70;;;4.37;;
2712;SDS011;1366;47.988;7.856;2023-09-30T01:54:10;6.83;;;4.10;;
2712;SDS011;1366;47.988;7.856;2023-09-30T01:56:37;6.10;;;3.73;;
2712;SDS011;1366;47.988;7.856;2023-09-30T01:59:03;6.70;;;4.43;;
2712;SDS011;1366;47.988;7.856;2023-09-30T02:01:29;4.80;;;3.70;;
2712;SDS011;1366;47.988;7.856;2023-09-30T02:03:55;4.63;;;3.33;;
2712;SDS011;1366;47.988;7.856;2023-09-30T02:06:21;4.93;;;3.63;;
2712;SDS011;1366;47.988;7.856;2023-09-30T02:08:47;5.57;;;4.50;;
2712;SDS011;1366;47.988;7.856;2023-09-30T02:11:13;6.00;;;4.10;;
2712;SDS011;1366;47.988;7.856;2023-09-30T02:13:40;4.20;;;3.40;;
2712;SDS011;1366;47.988;7.856;2023-09-30T02:16:10;6.00;;;4.27;;
2712;SDS011;1366;47.988;7.856;2023-09-30T02:18:37;6.17;;;3.80;;
2712;SDS011;1366;47.988;7.856;2023-09-30T02:21:05;4.97;;;3.73;;
2712;SDS011;1366;47.988;7.856;2023-09-30T02:23:32;9.83;;;4.97;;
2712;SDS011;1366;47.988;7.856;2023-09-30T02:25:58;7.33;;;4.23;;
2712;SDS011;1366;47.988;7.856;2023-09-30T02:28:24;6.53;;;4.37;;
2712;SDS011;1366;47.988;7.856;2023-09-30T02:30:50;9.90;;;4.27;;
2712;SDS011;1366;47.988;7.856;2023-09-30T02:33:18;8.23;;;4.90;;
2712;SDS011;1366;47.988;7.856;2023-09-30T02:35:44;7.17;;;4.83;;
2712;SDS011;1366;47.988;7.856;2023-09-30T02:38:11;5.70;;;3.90;;
2712;SDS011;1366;47.988;7.856;2023-09-30T02:40:38;6.13;;;4.50;;
2712;SDS011;1366;47.988;7.856;2023-09-30T02:43:05;5.73;;;3.70;;
2712;SDS011;1366;47.988;7.856;2023-09-30T02:45:31;7.70;;;4.27;;
2712;SDS011;1366;47.988;7.856;2023-09-30T02:47:57;6.03;;;4.23;;
2712;SDS011;1366;47.988;7.856;2023-09-30T02:50:23;6.60;;;4.53;;
2712;SDS011;1366;47.988;7.856;2023-09-30T02:52:49;6.30;;;3.70;;
2712;SDS011;1366;47.988;7.856;2023-09-30T02:55:15;5.47;;;4.03;;
2712;SDS011;1366;47.988;7.856;2023-09-30T02:57:42;5.93;;;4.40;;
2712;SDS011;1366;47.988;7.856;2023-09-30T03:00:08;7.00;;;4.10;;
2712;SDS011;1366;47.988;7.856;2023-09-30T03:02:57;5.20;;;4.27;;
2712;SDS011;1366;47.988;7.856;2023-09-30T03:05:23;5.67;;;4.43;;
2712;SDS011;1366;47.988;7.856;2023-09-30T03:07:49;7.30;;;4.00;;
2712;SDS011;1366;47.988;7.856;2023-09-30T03:10:15;9.10;;;5.23;;
2712;SDS011;1366;47.988;7.856;2023-09-30T03:12:55;7.60;;;3.83;;
2712;SDS011;1366;47.988;7.856;2023-09-30T03:15:21;5.27;;;4.40;;
2712;SDS011;1366;47.988;7.856;2023-09-30T03:17:48;5.90;;;4.10;;
2712;SDS011;1366;47.988;7.856;2023-09-30T03:20:14;7.10;;;4.30;;
2712;SDS011;1366;47.988;7.856;2023-09-30T03:22:45;4.33;;;3.33;;
2712;SDS011;1366;47.988;7.856;2023-09-30T03:25:12;6.50;;;4.13;;
2712;SDS011;1366;47.988;7.856;2023-09-30T03:27:40;4.83;;;3.70;;
2712;SDS011;1366;47.988;7.856;2023-09-30T03:30:06;6.90;;;4.33;;
2712;SDS011;1366;47.988;7.856;2023-09-30T03:32:33;7.40;;;4.70;;
2712;SDS011;1366;47.988;7.856;2023-09-30T03:35:01;7.17;;;5.03;;
2712;SDS011;1366;47.988;7.856;2023-09-30T03:37:27;6.80;;;4.07;;
2712;SDS011;1366;47.988;7.856;2023-09-30T03:39:54;6.33;;;4.10;;
2712;SDS011;1366;47.988;7.856;2023-09-30T03:42:21;7.00;;;3.90;;
2712;SDS011;1366;47.988;7.856;2023-09-30T03:44:47;5.57;;;4.10;;
2712;SDS011;1366;47.988;7.856;2023-09-30T03:47:16;6.33;;;4.67;;
2712;SDS011;1366;47.988;7.856;2023-09-30T03:49:42;5.13;;;3.83;;
2712;SDS011;1366;47.988;7.856;2023-09-30T03:52:09;5.30;;;4.70;;
2712;SDS011;1366;47.988;7.856;2023-09-30T03:54:36;5.10;;;3.83;;
2712;SDS011;1366;47.988;7.856;2023-09-30T03:57:02;5.90;;;4.20;;
2712;SDS011;1366;47.988;7.856;2023-09-30T03:59:28;9.33;;;4.50;;
2712;SDS011;1366;47.988;7.856;2023-09-30T04:01:55;5.97;;;4.23;;
2712;SDS011;1366;47.988;7.856;2023-09-30T04:04:22;6.40;;;4.27;;
2712;SDS011;1366;47.988;7.856;2023-09-30T04:06:49;5.40;;;3.80;;
2712;SDS011;1366;47.988;7.856;2023-09-30T04:09:16;4.70;;;3.67;;
2712;SDS011;1366;47.988;7.856;2023-09-30T04:11:42;5.30;;;4.50;;
2712;SDS011;1366;47.988;7.856;2023-09-30T04:14:08;4.27;;;3.87;;
2712;SDS011;1366;47.988;7.856;2023-09-30T04:16:35;7.90;;;4.47;;
2712;SDS011;1366;47.988;7.856;2023-09-30T04:19:02;5.20;;;3.97;;
2712;SDS011;1366;47.988;7.856;2023-09-30T04:21:29;6.10;;;3.93;;
2712;SDS011;1366;47.988;7.856;2023-09-30T04:23:59;7.10;;;4.37;;
2712;SDS011;1366;47.988;7.856;2023-09-30T04:26:25;7.87;;;4.63;;
2712;SDS011;1366;47.988;7.856;2023-09-30T04:28:51;6.13;;;4.10;;
2712;SDS011;1366;47.988;7.856;2023-09-30T04:31:18;7.40;;;4.70;;
2712;SDS011;1366;47.988;7.856;2023-09-30T04:33:45;7.60;;;4.80;;
2712;SDS011;1366;47.988;7.856;2023-09-30T04:36:11;4.10;;;3.70;;
2712;SDS011;1366;47.988;7.856;2023-09-30T04:38:37;5.60;;;4.17;;
2712;SDS011;1366;47.988;7.856;2023-09-30T04:41:03;6.60;;;4.23;;
2712;SDS011;1366;47.988;7.856;2023-09-30T04:43:32;6.53;;;4.13;;
2712;SDS011;1366;47.988;7.856;2023-09-30T04:45:58;4.97;;;4.33;;
2712;SDS011;1366;47.988;7.856;2023-09-30T04:48:24;5.90;;;4.57;;
2712;SDS011;1366;47.988;7.856;2023-09-30T04:50:50;7.83;;;4.40;;
2712;SDS011;1366;47.988;7.856;2023-09-30T04:53:16;4.80;;;4.23;;
2712;SDS011;1366;47.988;7.856;2023-09-30T04:55:46;6.73;;;4.10;;
2712;SDS011;1366;47.988;7.856;2023-09-30T04:58:15;4.43;;;3.60;;
2712;SDS011;1366;47.988;7.856;2023-09-30T05:00:41;6.87;;;4.40;;
2712;SDS011;1366;47.988;7.856;2023-09-30T05:03:08;7.37;;;4.67;;
2712;SDS011;1366;47.988;7.856;2023-09-30T05:05:34;4.63;;;3.87;;
2712;SDS011;1366;47.988;7.856;2023-09-30T05:08:00;5.97;;;4.27;;
2712;SDS011;1366;47.988;7.856;2023-09-30T05:10:26;7.47;;;4.40;;
2712;SDS011;1366;47.988;7.856;2023-09-30T05:12:52;5.83;;;4.13;;
2712;SDS011;1366;47.988;7.856;2023-09-30T05:15:20;7.93;;;4.80;;
2712;SDS011;1366;47.988;7.856;2023-09-30T05:17:47;7.63;;;4.30;;
2712;SDS011;1366;47.988;7.856;2023-09-30T05:20:14;5.57;;;3.90;;
2712;SDS011;1366;47.988;7.856;2023-09-30T05:22:42;6.97;;;4.67;;
2712;SDS011;1366;47.988;7.856;2023-09-30T05:25:10;5.53;;;3.90;;
2712;SDS011;1366;47.988;7.856;2023-09-30T05:27:37;5.30;;;3.50;;
2712;SDS011;1366;47.988;7.856;2023-09-30T05:30:03;5.53;;;4.10;;
2712;SDS011;1366;47.988;7.856;2023-09-30T05:32:31;5.90;;;3.80;;
2712;SDS011;1366;47.988;7.856;2023-09-30T05:34:57;4.80;;;3.97;;
2712;SDS011;1366;47.988;7.856;2023-09-30T05:37:24;7.33;;;4.17;;
2712;SDS011;1366;47.988;7.856;2023-09-30T05:39:51;4.90;;;4.40;;
2712;SDS011;1366;47.988;7.856;2023-09-30T05:42:18;7.30;;;4.57;;
2712;SDS011;1366;47.988;7.856;2023-09-30T05:44:44;6.67;;;4.13;;
2712;SDS011;1366;47.988;7.856;2023-09-30T05:47:11;4.50;;;3.83;;
2712;SDS011;1366;47.988;7.856;2023-09-30T05:49:37;7.10;;;4.03;;
2712;SDS011;1366;47.988;7.856;2023-09-30T05:52:03;6.80;;;4.53;;
2712;SDS011;1366;47.988;7.856;2023-09-30T05:54:30;5.00;;;4.07;;
2712;SDS011;1366;47.988;7.856;2023-09-30T05:56:56;4.07;;;3.60;;
2712;SDS011;1366;47.988;7.856;2023-09-30T05:59:22;6.03;;;4.07;;
2712;SDS011;1366;47.988;7.856;2023-09-30T06:01:50;7.00;;;4.33;;
2712;SDS011;1366;47.988;7.856;2023-09-30T06:04:16;5.60;;;4.43;;
2712;SDS011;1366;47.988;7.856;2023-09-30T06:06:42;5.07;;;4.17;;
2712;SDS011;1366;47.988;7.856;2023-09-30T06:09:09;5.57;;;4.37;;
2712;SDS011;1366;47.988;7.856;2023-09-30T06:11:35;6.47;;;4.20;;
2712;SDS011;1366;47.988;7.856;2023-09-30T06:14:01;7.83;;;4.80;;
2712;SDS011;1366;47.988;7.856;2023-09-30T06:16:27;7.17;;;4.03;;
2712;SDS011;1366;47.988;7.856;2023-09-30T06:18:56;7.90;;;4.80;;
2712;SDS011;1366;47.988;7.856;2023-09-30T06:21:24;4.27;;;3.77;;
2712;SDS011;1366;47.988;7.856;2023-09-30T06:23:55;6.30;;;4.47;;
2712;SDS011;1366;47.988;7.856;2023-09-30T06:26:21;4.97;;;4.57;;
2712;SDS011;1366;47.988;7.856;2023-09-30T06:28:49;5.27;;;4.33;;
2712;SDS011;1366;47.988;7.856;2023-09-30T06:31:18;7.53;;;4.23;;
2712;SDS011;1366;47.988;7.856;2023-09-30T06:33:44;4.73;;;4.00;;
2712;SDS011;1366;47.988;7.856;2023-09-30T06:36:11;6.77;;;4.70;;
2712;SDS011;1366;47.988;7.856;2023-09-30T06:38:41;6.03;;;4.27;;
2712;SDS011;1366;47.988;7.856;2023-09-30T06:41:08;4.97;;;4.23;;
2712;SDS011;1366;47.988;7.856;2023-09-30T06:43:34;5.67;;;4.10;;
2712;SDS011;1366;47.988;7.856;2023-09-30T06:46:06;6.80;;;4.27;;
2712;SDS011;1366;47.988;7.856;2023-09-30T06:48:36;7.67;;;4.40;;
2712;SDS011;1366;47.988;7.856;2023-09-30T06:51:02;6.30;;;4.30;;
2712;SDS011;1366;47.988;7.856;2023-09-30T06:53:28;7.60;;;5.10;;
2712;SDS011;1366;47.988;7.856;2023-09-30T06:55:54;6.20;;;4.20;;
2712;SDS011;1366;47.988;7.856;2023-09-30T06:58:20;8.30;;;5.13;;
2712;SDS011;1366;47.988;7.856;2023-09-30T07:00:47;7.07;;;3.77;;
2712;SDS011;1366;47.988;7.856;2023-09-30T07:03:14;5.80;;;4.07;;
2712;SDS011;1366;47.988;7.856;2023-09-30T07:05:40;5.93;;;4.10;;
2712;SDS011;1366;47.988;7.856;2023-09-30T07:08:06;4.30;;;3.90;;
2712;SDS011;1366;47.988;7.856;2023-09-30T07:10:33;5.27;;;3.50;;
2712;SDS011;1366;47.988;7.856;2023-09-30T07:13:01;6.00;;;4.17;;
2712;SDS011;1366;47.988;7.856;2023-09-30T07:15:27;7.30;;;5.00;;
2712;SDS011;1366;47.988;7.856;2023-09-30T07:17:53;5.67;;;4.07;;
2712;SDS011;1366;47.988;7.856;2023-09-30T07:20:19;5.73;;;4.37;;
2712;SDS011;1366;47.988;7.856;2023-09-30T07:22:47;6.77;;;4.80;;
2712;SDS011;1366;47.988;7.856;2023-09-30T07:25:13;6.40;;;5.07;;
2712;SDS011;1366;47.988;7.856;2023-09-30T07:27:41;6.90;;;5.20;;
2712;SDS011;1366;47.988;7.856;2023-09-30T07:30:07;7.63;;;4.40;;
2712;SDS011;1366;47.988;7.856;2023-09-30T07:32:33;5.60;;;5.00;;
2712;SDS011;1366;47.988;7.856;2023-09-30T07:34:59;8.03;;;5.10;;
2712;SDS011;1366;47.988;7.856;2023-09-30T07:37:26;9.03;;;5.07;;
2712;SDS011;1366;47.988;7.856;2023-09-30T07:39:52;7.40;;;4.60;;
2712;SDS011;1366;47.988;7.856;2023-09-30T07:42:18;5.97;;;4.03;;
2712;SDS011;1366;47.988;7.856;2023-09-30T07:44:44;6.90;;;5.23;;
2712;SDS011;1366;47.988;7.856;2023-09-30T07:47:10;7.17;;;4.77;;
2712;SDS011;1366;47.988;7.856;2023-09-30T07:49:37;5.30;;;4.50;;
2712;SDS011;1366;47.988;7.856;2023-09-30T07:52:04;7.20;;;4.73;;
2712;SDS011;1366;47.988;7.856;2023-09-30T07:54:30;7.67;;;4.50;;
2712;SDS011;1366;47.988;7.856;2023-09-30T07:56:56;5.17;;;4.43;;
2712;SDS011;1366;47.988;7.856;2023-09-30T07:59:22;5.47;;;4.40;;
2712;SDS011;1366;47.988;7.856;2023-09-30T08:01:48;6.40;;;4.60;;
2712;SDS011;1366;47.988;7.856;2023-09-30T08:04:14;5.87;;;4.23;;
2712;SDS011;1366;47.988;7.856;2023-09-30T08:06:41;7.23;;;5.10;;
2712;SDS011;1366;47.988;7.856;2023-09-30T08:09:07;4.60;;;3.50;;
2712;SDS011;1366;47.988;7.856;2023-09-30T08:11:36;6.93;;;4.30;;
2712;SDS011;1366;47.988;7.856;2023-09-30T08:14:03;5.67;;;4.33;;
2712;SDS011;1366;47.988;7.856;2023-09-30T08:16:32;5.43;;;4.80;;
2712;SDS011;1366;47.988;7.856;2023-09-30T08:18:58;6.90;;;5.10;;
2712;SDS011;1366;47.988;7.856;2023-09-30T08:21:24;6.03;;;4.80;;
2712;SDS011;1366;47.988;7.856;2023-09-30T08:23:50;5.07;;;4.57;;
2712;SDS011;1366;47.988;7.856;2023-09-30T08:26:16;6.70;;;4.63;;
2712;SDS011;1366;47.988;7.856;2023-09-30T08:28:42;6.30;;;4.40;;
2712;SDS011;1366;47.988;7.856;2023-09-30T08:31:08;6.33;;;4.47;;
2712;SDS011;1366;47.988;7.856;2023-09-30T08:33:34;7.73;;;5.07;;
2712;SDS011;1366;47.988;7.856;2023-09-30T08:36:09;7.37;;;4.57;;
2712;SDS011;1366;47.988;7.856;2023-09-30T08:38:36;6.90;;;4.73;;
2712;SDS011;1366;47.988;7.856;2023-09-30T08:41:02;4.83;;;4.33;;
2712;SDS011;1366;47.988;7.856;2023-09-30T08:43:28;8.50;;;5.33;;
2712;SDS011;1366;47.988;7.856;2023-09-30T08:45:58;6.20;;;4.40;;
2712;SDS011;1366;47.988;7.856;2023-09-30T08:48:27;5.60;;;4.70;;
2712;SDS011;1366;47.988;7.856;2023-09-30T08:50:54;6.40;;;5.00;;
2712;SDS011;1366;47.988;7.856;2023-09-30T08:53:21;6.93;;;4.50;;
2712;SDS011;1366;47.988;7.856;2023-09-30T08:55:48;4.33;;;3.80;;
2712;SDS011;1366;47.988;7.856;2023-09-30T08:58:16;6.70;;;4.17;;
2712;SDS011;1366;47.988;7.856;2023-09-30T09:00:43;5.57;;;3.93;;
2712;SDS011;1366;47.988;7.856;2023-09-30T09:03:10;5.40;;;3.77;;
2712;SDS011;1366;47.988;7.856;2023-09-30T09:05:36;5.93;;;3.93;;
2712;SDS011;1366;47.988;7.856;2023-09-30T09:08:02;6.43;;;3.87;;
2712;SDS011;1366;47.988;7.856;2023-09-30T09:10:28;5.30;;;3.53;;
2712;SDS011;1366;47.988;7.856;2023-09-30T09:12:55;7.13;;;4.40;;
2712;SDS011;1366;47.988;7.856;2023-09-30T09:15:25;6.90;;;4.17;;
2712;SDS011;1366;47.988;7.856;2023-09-30T09:17:51;5.13;;;3.60;;
2712;SDS011;1366;47.988;7.856;2023-09-30T09:20:18;5.43;;;3.50;;
2712;SDS011;1366;47.988;7.856;2023-09-30T09:22:46;4.67;;;3.50;;
2712;SDS011;1366;47.988;7.856;2023-09-30T09:25:12;5.20;;;4.30;;
2712;SDS011;1366;47.988;7.856;2023-09-30T09:27:38;6.47;;;4.53;;
2712;SDS011;1366;47.988;7.856;2023-09-30T09:30:14;6.27;;;3.80;;
2712;SDS011;1366;47.988;7.856;2023-09-30T09:32:51;6.10;;;4.00;;
2712;SDS011;1366;47.988;7.856;2023-09-30T09:35:21;7.87;;;4.73;;
2712;SDS011;1366;47.988;7.856;2023-09-30T09:37:56;5.33;;;4.00;;
2712;SDS011;1366;47.988;7.856;2023-09-30T09:40:23;5.70;;;4.10;;
2712;SDS011;1366;47.988;7.856;2023-09-30T09:42:49;5.00;;;3.97;;
2712;SDS011;1366;47.988;7.856;2023-09-30T09:45:18;5.40;;;4.90;;
2712;SDS011;1366;47.988;7.856;2023-09-30T09:47:45;3.73;;;3.43;;
2712;SDS011;1366;47.988;7.856;2023-09-30T09:50:12;8.10;;;4.60;;
2712;SDS011;1366;47.988;7.856;2023-09-30T09:52:39;4.60;;;4.00;;
2712;SDS011;1366;47.988;7.856;2023-09-30T09:55:10;4.40;;;4.00;;
2712;SDS011;1366;47.988;7.856;2023-09-30T09:57:37;6.37;;;4.33;;
2712;SDS011;1366;47.988;7.856;2023-09-30T10:00:03;9.23;;;4.10;;
2712;SDS011;1366;47.988;7.856;2023-09-30T10:02:39;7.10;;;4.00;;
2712;SDS011;1366;47.988;7.856;2023-09-30T10:05:05;5.80;;;4.00;;
2712;SDS011;1366;47.988;7.856;2023-09-30T10:07:36;5.70;;;4.47;;
2712;SDS011;1366;47.988;7.856;2023-09-30T10:10:04;6.33;;;4.40;;
2712;SDS011;1366;47.988;7.856;2023-09-30T10:12:37;5.27;;;4.03;;
2712;SDS011;1366;47.988;7.856;2023-09-30T10:20:31;6.10;;;4.10;;
2712;SDS011;1366;47.988;7.856;2023-09-30T10:25:42;6.40;;;4.20;;
2712;SDS011;1366;47.988;7.856;2023-09-30T10:36:40;8.97;;;4.20;;
2712;SDS011;1366;47.988;7.856;2023-09-30T10:39:13;5.47;;;4.30;;
2712;SDS011;1366;47.988;7.856;2023-09-30T10:51:53;5.43;;;3.90;;
2712;SDS011;1366;47.988;7.856;2023-09-30T10:54:29;5.90;;;4.03;;
2712;SDS011;1366;47.988;7.856;2023-09-30T10:56:56;5.60;;;4.27;;
2712;SDS011;1366;47.988;7.856;2023-09-30T10:59:27;7.70;;;4.60;;
2712;SDS011;1366;47.988;7.856;2023-09-30T11:01:57;10.00;;;4.80;;
2712;SDS011;1366;47.988;7.856;2023-09-30T11:04:23;9.13;;;4.60;;
2712;SDS011;1366;47.988;7.856;2023-09-30T11:06:49;7.53;;;4.90;;
2712;SDS011;1366;47.988;7.856;2023-09-30T11:09:16;7.90;;;4.53;;
2712;SDS011;1366;47.988;7.856;2023-09-30T11:11:45;5.20;;;4.70;;
2712;SDS011;1366;47.988;7.856;2023-09-30T11:14:17;7.00;;;5.20;;
2712;SDS011;1366;47.988;7.856;2023-09-30T11:16:43;7.10;;;4.83;;
2712;SDS011;1366;47.988;7.856;2023-09-30T11:19:10;7.53;;;4.93;;
2712;SDS011;1366;47.988;7.856;2023-09-30T11:21:37;10.23;;;6.27;;
2712;SDS011;1366;47.988;7.856;2023-09-30T11:24:03;7.40;;;4.77;;
2712;SDS011;1366;47.988;7.856;2023-09-30T11:26:31;10.33;;;5.47;;
2712;SDS011;1366;47.988;7.856;2023-09-30T11:29:04;8.50;;;5.80;;
2712;SDS011;1366;47.988;7.856;2023-09-30T11:31:30;9.37;;;5.60;;
2712;SDS011;1366;47.988;7.856;2023-09-30T11:33:59;8.93;;;5.10;;
2712;SDS011;1366;47.988;7.856;2023-09-30T11:36:28;8.43;;;5.43;;
2712;SDS011;1366;47.988;7.856;2023-09-30T11:38:55;10.40;;;6.27;;
2712;SDS011;1366;47.988;7.856;2023-09-30T11:41:21;15.40;;;6.80;;
2712;SDS011;1366;47.988;7.856;2023-09-30T11:44:00;10.07;;;7.10;;
2712;SDS011;1366;47.988;7.856;2023-09-30T11:46:27;6.97;;;5.60;;
2712;SDS011;1366;47.988;7.856;2023-09-30T11:49:03;9.00;;;5.60;;
2712;SDS011;1366;47.988;7.856;2023-09-30T11:51:42;9.67;;;6.37;;
2712;SDS011;1366;47.988;7.856;2023-09-30T11:54:11;9.97;;;6.20;;
2712;SDS011;1366;47.988;7.856;2023-09-30T11:56:37;9.67;;;6.30;;
2712;SDS011;1366;47.988;7.856;2023-09-30T11:59:03;8.67;;;6.60;;
2712;SDS011;1366;47.988;7.856;2023-09-30T12:01:29;8.23;;;5.83;;
2712;SDS011;1366;47.988;7.856;2023-09-30T12:03:57;8.27;;;6.20;;
2712;SDS011;1366;47.988;7.856;2023-09-30T12:06:23;9.43;;;5.93;;
2712;SDS011;1366;47.988;7.856;2023-09-30T12:08:49;8.47;;;5.40;;
2712;SDS011;1366;47.988;7.856;2023-09-30T12:11:17;8.30;;;6.30;;
2712;SDS011;1366;47.988;7.856;2023-09-30T12:13:43;10.03;;;6.87;;
2712;SDS011;1366;47.988;7.856;2023-09-30T12:16:10;8.53;;;6.50;;
2712;SDS011;1366;47.988;7.856;2023-09-30T12:18:38;8.90;;;5.97;;
2712;SDS011;1366;47.988;7.856;2023-09-30T12:21:06;8.90;;;6.30;;
2712;SDS011;1366;47.988;7.856;2023-09-30T12:23:33;8.03;;;5.30;;
2712;SDS011;1366;47.988;7.856;2023-09-30T12:26:00;9.37;;;6.97;;
2712;SDS011;1366;47.988;7.856;2023-09-30T12:28:30;9.03;;;5.77;;
2712;SDS011;1366;47.988;7.856;2023-09-30T12:30:57;10.67;;;7.10;;
2712;SDS011;1366;47.988;7.856;2023-09-30T12:33:23;10.57;;;6.90;;
2712;SDS011;1366;47.988;7.856;2023-09-30T12:35:49;11.53;;;6.80;;
2712;SDS011;1366;47.988;7.856;2023-09-30T12:38:16;8.33;;;5.93;;
2712;SDS011;1366;47.988;7.856;2023-09-30T12:40:42;7.53;;;5.90;;
2712;SDS011;1366;47.988;7.856;2023-09-30T12:43:09;9.77;;;6.03;;
2712;SDS011;1366;47.988;7.856;2023-09-30T12:45:35;11.67;;;7.00;;
2712;SDS011;1366;47.988;7.856;2023-09-30T12:48:03;9.60;;;6.57;;
2712;SDS011;1366;47.988;7.856;2023-09-30T12:50:29;8.63;;;7.20;;
2712;SDS011;1366;47.988;7.856;2023-09-30T12:52:56;8.00;;;6.40;;
2712;SDS011;1366;47.988;7.856;2023-09-30T12:55:22;7.17;;;6.40;;
2712;SDS011;1366;47.988;7.856;2023-09-30T12:57:48;11.83;;;7.27;;
2712;SDS011;1366;47.988;7.856;2023-09-30T13:00:14;9.77;;;7.10;;
2712;SDS011;1366;47.988;7.856;2023-09-30T13:02:41;9.50;;;6.93;;
2712;SDS011;1366;47.988;7.856;2023-09-30T13:05:08;10.00;;;7.70;;
2712;SDS011;1366;47.988;7.856;2023-09-30T13:07:34;12.33;;;6.73;;
2712;SDS011;1366;47.988;7.856;2023-09-30T13:10:00;9.80;;;6.73;;
2712;SDS011;1366;47.988;7.856;2023-09-30T13:12:27;11.67;;;7.67;;
2712;SDS011;1366;47.988;7.856;2023-09-30T13:14:53;9.97;;;7.20;;
2712;SDS011;1366;47.988;7.856;2023-09-30T13:17:21;8.77;;;7.40;;
2712;SDS011;1366;47.988;7.856;2023-09-30T13:19:47;12.10;;;7.67;;
2712;SDS011;1366;47.988;7.856;2023-09-30T13:22:13;11.77;;;7.70;;
2712;SDS011;1366;47.988;7.856;2023-09-30T13:24:41;10.50;;;7.73;;
2712;SDS011;1366;47.988;7.856;2023-09-30T13:27:08;10.97;;;7.27;;
2712;SDS011;1366;47.988;7.856;2023-09-30T13:29:34;8.80;;;6.63;;
2712;SDS011;1366;47.988;7.856;2023-09-30T13:32:00;11.10;;;7.50;;
2712;SDS011;1366;47.988;7.856;2023-09-30T13:34:26;7.80;;;6.57;;
2712;SDS011;1366;47.988;7.856;2023-09-30T13:36:52;10.20;;;6.77;;
2712;SDS011;1366;47.988;7.856;2023-09-30T13:39:18;10.13;;;7.27;;
2712;SDS011;1366;47.988;7.856;2023-09-30T13:41:46;10.43;;;6.17;;
2712;SDS011;1366;47.988;7.856;2023-09-30T13:44:12;9.57;;;6.20;;
2712;SDS011;1366;47.988;7.856;2023-09-30T13:46:39;9.70;;;6.27;;
2712;SDS011;1366;47.988;7.856;2023-09-30T13:49:05;10.90;;;7.03;;
2712;SDS011;1366;47.988;7.856;2023-09-30T13:51:31;9.80;;;6.90;;
2712;SDS011;1366;47.988;7.856;2023-09-30T13:53:57;12.30;;;8.10;;
2712;SDS011;1366;47.988;7.856;2023-09-30T13:56:23;7.60;;;5.77;;
2712;SDS011;1366;47.988;7.856;2023-09-30T13:58:49;11.23;;;7.63;;
2712;SDS011;1366;47.988;7.856;2023-09-30T14:01:15;8.87;;;6.77;;
2712;SDS011;1366;47.988;7.856;2023-09-30T14:03:44;9.50;;;6.53;;
2712;SDS011;1366;47.988;7.856;2023-09-30T14:06:12;8.10;;;6.50;;
2712;SDS011;1366;47.988;7.856;2023-09-30T14:08:38;9.80;;;7.50;;
2712;SDS011;1366;47.988;7.856;2023-09-30T14:11:04;9.97;;;6.40;;
2712;SDS011;1366;47.988;7.856;2023-09-30T14:13:30;9.17;;;6.57;;
2712;SDS011;1366;47.988;7.856;2023-09-30T14:15:57;11.07;;;6.70;;
2712;SDS011;1366;47.988;7.856;2023-09-30T14:18:23;11.50;;;7.80;;
2712;SDS011;1366;47.988;7.856;2023-09-30T14:20:49;10.27;;;7.03;;
2712;SDS011;1366;47.988;7.856;2023-09-30T14:23:15;10.83;;;7.93;;
2712;SDS011;1366;47.988;7.856;2023-09-30T14:25:42;11.63;;;7.40;;
2712;SDS011;1366;47.988;7.856;2023-09-30T14:28:08;10.97;;;6.70;;
2712;SDS011;1366;47.988;7.856;2023-09-30T14:30:34;12.10;;;6.60;;
2712;SDS011;1366;47.988;7.856;2023-09-30T14:33:00;12.40;;;7.40;;
2712;SDS011;1366;47.988;7.856;2023-09-30T14:35:26;12.07;;;9.10;;
2712;SDS011;1366;47.988;7.856;2023-09-30T14:37:53;12.70;;;7.27;;
2712;SDS011;1366;47.988;7.856;2023-09-30T14:40:19;12.93;;;8.50;;
2712;SDS011;1366;47.988;7.856;2023-09-30T14:42:46;10.27;;;7.47;;
2712;SDS011;1366;47.988;7.856;2023-09-30T14:45:12;11.80;;;7.63;;
2712;SDS011;1366;47.988;7.856;2023-09-30T14:47:38;9.70;;;6.77;;
2712;SDS011;1366;47.988;7.856;2023-09-30T14:50:08;12.27;;;7.23;;
2712;SDS011;1366;47.988;7.856;2023-09-30T14:52:34;10.33;;;7.80;;
2712;SDS011;1366;47.988;7.856;2023-09-30T14:55:00;11.50;;;7.53;;
2712;SDS011;1366;47.988;7.856;2023-09-30T14:57:26;11.27;;;6.93;;
2712;SDS011;1366;47.988;7.856;2023-09-30T14:59:52;8.83;;;6.20;;
2712;SDS011;1366;47.988;7.856;2023-09-30T15:02:18;10.00;;;7.20;;
2712;SDS011;1366;47.988;7.856;2023-09-30T15:04:44;11.47;;;7.90;;
2712;SDS011;1366;47.988;7.856;2023-09-30T15:07:10;10.37;;;7.47;;
2712;SDS011;1366;47.988;7.856;2023-09-30T15:09:37;10.50;;;7.40;;
2712;SDS011;1366;47.988;7.856;2023-09-30T15:12:03;9.70;;;8.00;;
2712;SDS011;1366;47.988;7.856;2023-09-30T15:14:30;11.00;;;7.83;;
2712;SDS011;1366;47.988;7.856;2023-09-30T15:16:56;13.07;;;8.47;;
2712;SDS011;1366;47.988;7.856;2023-09-30T15:19:22;10.43;;;7.43;;
2712;SDS011;1366;47.988;7.856;2023-09-30T15:21:48;10.30;;;7.80;;
2712;SDS011;1366;47.988;7.856;2023-09-30T15:24:14;10.30;;;7.37;;
2712;SDS011;1366;47.988;7.856;2023-09-30T15:26:40;11.37;;;7.30;;
2712;SDS011;1366;47.988;7.856;2023-09-30T15:29:06;9.43;;;6.97;;
2712;SDS011;1366;47.988;7.856;2023-09-30T15:31:32;10.43;;;7.17;;
2712;SDS011;1366;47.988;7.856;2023-09-30T15:34:01;11.77;;;7.50;;
2712;SDS011;1366;47.988;7.856;2023-09-30T15:39:24;10.90;;;6.90;;
2712;SDS011;1366;47.988;7.856;2023-09-30T15:41:50;10.03;;;7.40;;